sensor_id;sensor_type;location;lat;lon;timestamp;P1;durP1;ratioP1;P2;durP2;ratioP2
18340;SDS011;9296;48.084;16.352;2022-08-01T00:00:07;5.53;;;4.68;;
18340;SDS011;9296;48.084;16.352;2022-08-01T00:02:34;5.35;;;4.38;;
18340;SDS011;9296;48.084;16.352;2022-08-01T00:05:03;6.07;;;4.88;;
18340;SDS011;9296;48.084;16.352;2022-08-01T00:07:30;5.65;;;5.07;;
18340;SDS011;9296;48.084;16.352;2022-08-01T00:09:58;6.53;;;4.72;;
18340;SDS011;9296;48.084;16.352;2022-08-01T00:12:26;5.53;;;5.03;;
18340;SDS011;9296;48.084;16.352;2022-08-01T00:14:53;8.85;;;5.30;;
18340;SDS011;9296;48.084;16.352;2022-08-01T00:17:21;5.60;;;4.88;;
18340;SDS011;9296;48.084;16.352;2022-08-01T00:19:48;5.60;;;4.85;;
18340;SDS011;9296;48.084;16.352;2022-08-01T00:25:18;5.78;;;5.28;;
18340;SDS011;9296;48.084;16.352;2022-08-01T00:27:47;6.28;;;5.05;;
18340;SDS011;9296;48.084;16.352;2022-08-01T00:30:14;5.40;;;4.90;;
18340;SDS011;9296;48.084;16.352;2022-08-01T00:32:41;7.25;;;5.22;;
18340;SDS011;9296;48.084;16.352;2022-08-01T00:35:08;6.97;;;5.22;;
18340;SDS011;9296;48.084;16.352;2022-08-01T00:40:39;5.97;;;5.43;;
18340;SDS011;9296;48.084;16.352;2022-08-01T00:43:09;5.90;;;5.30;;
18340;SDS011;9296;48.084;16.352;2022-08-01T00:45:36;5.55;;;5.05;;
18340;SDS011;9296;48.084;16.352;2022-08-01T00:48:03;5.68;;;5.10;;
18340;SDS011;9296;48.084;16.352;2022-08-01T00:53:52;5.82;;;5.30;;
18340;SDS011;9296;48.084;16.352;2022-08-01T00:56:20;5.95;;;5.35;;
18340;SDS011;9296;48.084;16.352;2022-08-01T00:58:48;5.70;;;5.20;;
18340;SDS011;9296;48.084;16.352;2022-08-01T01:01:16;5.97;;;5.40;;
18340;SDS011;9296;48.084;16.352;2022-08-01T01:03:45;5.50;;;5.10;;
18340;SDS011;9296;48.084;16.352;2022-08-01T01:06:14;6.10;;;5.50;;
18340;SDS011;9296;48.084;16.352;2022-08-01T01:08:46;6.25;;;5.68;;
18340;SDS011;9296;48.084;16.352;2022-08-01T01:11:16;5.90;;;5.40;;
18340;SDS011;9296;48.084;16.352;2022-08-01T01:13:49;5.88;;;5.30;;
18340;SDS011;9296;48.084;16.352;2022-08-01T01:16:19;6.10;;;5.45;;
18340;SDS011;9296;48.084;16.352;2022-08-01T01:18:47;6.38;;;5.78;;
18340;SDS011;9296;48.084;16.352;2022-08-01T01:21:27;6.63;;;6.03;;
18340;SDS011;9296;48.084;16.352;2022-08-01T01:23:59;7.10;;;6.35;;
18340;SDS011;9296;48.084;16.352;2022-08-01T01:26:33;9.25;;;5.97;;
18340;SDS011;9296;48.084;16.352;2022-08-01T01:29:06;8.02;;;7.32;;
18340;SDS011;9296;48.084;16.352;2022-08-01T01:31:36;6.82;;;6.22;;
18340;SDS011;9296;48.084;16.352;2022-08-01T01:34:05;6.85;;;6.10;;
18340;SDS011;9296;48.084;16.352;2022-08-01T01:36:52;6.75;;;6.15;;
18340;SDS011;9296;48.084;16.352;2022-08-01T01:39:21;6.93;;;6.22;;
18340;SDS011;9296;48.084;16.352;2022-08-01T01:41:49;7.93;;;5.80;;
18340;SDS011;9296;48.084;16.352;2022-08-01T01:44:19;6.72;;;6.13;;
18340;SDS011;9296;48.084;16.352;2022-08-01T01:46:47;6.63;;;5.72;;
18340;SDS011;9296;48.084;16.352;2022-08-01T01:49:15;6.70;;;6.00;;
18340;SDS011;9296;48.084;16.352;2022-08-01T01:51:43;6.45;;;5.80;;
18340;SDS011;9296;48.084;16.352;2022-08-01T01:54:11;6.82;;;5.72;;
18340;SDS011;9296;48.084;16.352;2022-08-01T01:56:38;6.50;;;5.90;;
18340;SDS011;9296;48.084;16.352;2022-08-01T01:59:14;5.82;;;5.43;;
18340;SDS011;9296;48.084;16.352;2022-08-01T02:01:44;6.30;;;5.70;;
18340;SDS011;9296;48.084;16.352;2022-08-01T02:04:13;6.05;;;5.45;;
18340;SDS011;9296;48.084;16.352;2022-08-01T02:09:44;6.38;;;5.80;;
18340;SDS011;9296;48.084;16.352;2022-08-01T02:12:12;7.22;;;5.72;;
18340;SDS011;9296;48.084;16.352;2022-08-01T02:14:41;6.25;;;5.43;;
18340;SDS011;9296;48.084;16.352;2022-08-01T02:17:11;6.53;;;5.93;;
18340;SDS011;9296;48.084;16.352;2022-08-01T02:19:39;6.50;;;5.90;;
18340;SDS011;9296;48.084;16.352;2022-08-01T02:22:26;7.40;;;5.60;;
18340;SDS011;9296;48.084;16.352;2022-08-01T02:24:54;6.80;;;5.63;;
18340;SDS011;9296;48.084;16.352;2022-08-01T02:27:24;6.35;;;5.75;;
18340;SDS011;9296;48.084;16.352;2022-08-01T02:29:53;5.97;;;5.38;;
18340;SDS011;9296;48.084;16.352;2022-08-01T02:32:24;6.20;;;5.60;;
18340;SDS011;9296;48.084;16.352;2022-08-01T02:34:52;6.13;;;5.60;;
18340;SDS011;9296;48.084;16.352;2022-08-01T02:40:06;5.60;;;5.10;;
18340;SDS011;9296;48.084;16.352;2022-08-01T02:42:35;5.78;;;4.90;;
18340;SDS011;9296;48.084;16.352;2022-08-01T02:45:03;6.15;;;4.50;;
18340;SDS011;9296;48.084;16.352;2022-08-01T02:47:33;4.97;;;4.50;;
18340;SDS011;9296;48.084;16.352;2022-08-01T02:50:02;4.95;;;4.10;;
18340;SDS011;9296;48.084;16.352;2022-08-01T02:52:29;4.70;;;4.15;;
18340;SDS011;9296;48.084;16.352;2022-08-01T02:54:57;4.18;;;3.80;;
18340;SDS011;9296;48.084;16.352;2022-08-01T02:57:25;5.18;;;4.20;;
18340;SDS011;9296;48.084;16.352;2022-08-01T02:59:53;4.70;;;3.88;;
18340;SDS011;9296;48.084;16.352;2022-08-01T03:02:20;8.05;;;4.03;;
18340;SDS011;9296;48.084;16.352;2022-08-01T03:04:51;4.53;;;4.10;;
18340;SDS011;9296;48.084;16.352;2022-08-01T03:07:37;4.30;;;3.90;;
18340;SDS011;9296;48.084;16.352;2022-08-01T03:10:05;3.97;;;3.67;;
18340;SDS011;9296;48.084;16.352;2022-08-01T03:12:33;4.43;;;4.00;;
18340;SDS011;9296;48.084;16.352;2022-08-01T03:15:01;4.18;;;3.80;;
18340;SDS011;9296;48.084;16.352;2022-08-01T03:17:29;6.00;;;3.83;;
18340;SDS011;9296;48.084;16.352;2022-08-01T03:19:58;6.43;;;4.22;;
18340;SDS011;9296;48.084;16.352;2022-08-01T03:22:46;4.38;;;4.00;;
18340;SDS011;9296;48.084;16.352;2022-08-01T03:25:15;5.50;;;5.00;;
18340;SDS011;9296;48.084;16.352;2022-08-01T03:27:43;5.50;;;5.10;;
18340;SDS011;9296;48.084;16.352;2022-08-01T03:30:12;7.03;;;5.50;;
18340;SDS011;9296;48.084;16.352;2022-08-01T03:32:40;6.05;;;5.30;;
18340;SDS011;9296;48.084;16.352;2022-08-01T03:35:09;5.82;;;5.32;;
18340;SDS011;9296;48.084;16.352;2022-08-01T03:37:38;5.82;;;5.32;;
18340;SDS011;9296;48.084;16.352;2022-08-01T03:40:08;8.35;;;5.60;;
18340;SDS011;9296;48.084;16.352;2022-08-01T03:42:37;5.75;;;5.25;;
18340;SDS011;9296;48.084;16.352;2022-08-01T03:45:07;5.93;;;5.40;;
18340;SDS011;9296;48.084;16.352;2022-08-01T03:47:35;8.32;;;5.35;;
18340;SDS011;9296;48.084;16.352;2022-08-01T03:50:03;5.93;;;5.30;;
18340;SDS011;9296;48.084;16.352;2022-08-01T03:52:32;5.60;;;5.10;;
18340;SDS011;9296;48.084;16.352;2022-08-01T03:55:03;7.20;;;5.30;;
18340;SDS011;9296;48.084;16.352;2022-08-01T03:57:32;6.00;;;4.72;;
18340;SDS011;9296;48.084;16.352;2022-08-01T03:59:59;7.43;;;5.40;;
18340;SDS011;9296;48.084;16.352;2022-08-01T04:02:27;5.65;;;5.05;;
18340;SDS011;9296;48.084;16.352;2022-08-01T04:04:55;5.95;;;5.30;;
18340;SDS011;9296;48.084;16.352;2022-08-01T04:07:23;5.93;;;5.43;;
18340;SDS011;9296;48.084;16.352;2022-08-01T04:09:52;6.40;;;5.10;;
18340;SDS011;9296;48.084;16.352;2022-08-01T04:12:19;5.30;;;4.80;;
18340;SDS011;9296;48.084;16.352;2022-08-01T04:14:47;5.60;;;4.97;;
18340;SDS011;9296;48.084;16.352;2022-08-01T04:17:15;5.72;;;5.05;;
18340;SDS011;9296;48.084;16.352;2022-08-01T04:19:42;5.32;;;4.93;;
18340;SDS011;9296;48.084;16.352;2022-08-01T04:22:10;6.57;;;4.80;;
18340;SDS011;9296;48.084;16.352;2022-08-01T04:24:37;5.53;;;5.03;;
18340;SDS011;9296;48.084;16.352;2022-08-01T04:27:09;6.05;;;5.40;;
18340;SDS011;9296;48.084;16.352;2022-08-01T04:29:38;5.30;;;4.80;;
18340;SDS011;9296;48.084;16.352;2022-08-01T04:32:06;6.45;;;5.00;;
18340;SDS011;9296;48.084;16.352;2022-08-01T04:34:34;5.68;;;4.90;;
18340;SDS011;9296;48.084;16.352;2022-08-01T04:37:02;5.88;;;5.13;;
18340;SDS011;9296;48.084;16.352;2022-08-01T04:39:31;5.30;;;4.80;;
18340;SDS011;9296;48.084;16.352;2022-08-01T04:41:58;5.65;;;5.07;;
18340;SDS011;9296;48.084;16.352;2022-08-01T04:44:30;5.68;;;5.10;;
18340;SDS011;9296;48.084;16.352;2022-08-01T04:46:57;7.93;;;5.13;;
18340;SDS011;9296;48.084;16.352;2022-08-01T04:49:25;5.95;;;5.30;;
18340;SDS011;9296;48.084;16.352;2022-08-01T04:52:11;5.93;;;5.35;;
18340;SDS011;9296;48.084;16.352;2022-08-01T04:54:39;5.45;;;4.95;;
18340;SDS011;9296;48.084;16.352;2022-08-01T04:57:06;5.50;;;5.10;;
18340;SDS011;9296;48.084;16.352;2022-08-01T04:59:35;5.90;;;5.22;;
18340;SDS011;9296;48.084;16.352;2022-08-01T05:02:06;5.60;;;5.10;;
18340;SDS011;9296;48.084;16.352;2022-08-01T05:04:33;5.32;;;4.82;;
18340;SDS011;9296;48.084;16.352;2022-08-01T05:10:16;5.22;;;4.72;;
18340;SDS011;9296;48.084;16.352;2022-08-01T05:12:43;6.38;;;4.88;;
18340;SDS011;9296;48.084;16.352;2022-08-01T05:15:12;5.22;;;4.80;;
18340;SDS011;9296;48.084;16.352;2022-08-01T05:17:41;5.43;;;5.03;;
18340;SDS011;9296;48.084;16.352;2022-08-01T05:20:09;6.07;;;5.50;;
18340;SDS011;9296;48.084;16.352;2022-08-01T05:22:36;5.93;;;5.25;;
18340;SDS011;9296;48.084;16.352;2022-08-01T05:25:04;5.85;;;5.35;;
18340;SDS011;9296;48.084;16.352;2022-08-01T05:27:32;6.03;;;4.68;;
18340;SDS011;9296;48.084;16.352;2022-08-01T05:30:03;5.43;;;4.93;;
18340;SDS011;9296;48.084;16.352;2022-08-01T05:32:32;5.95;;;5.30;;
18340;SDS011;9296;48.084;16.352;2022-08-01T05:34:59;6.57;;;5.00;;
18340;SDS011;9296;48.084;16.352;2022-08-01T05:37:26;5.70;;;5.20;;
18340;SDS011;9296;48.084;16.352;2022-08-01T05:39:53;6.10;;;5.50;;
18340;SDS011;9296;48.084;16.352;2022-08-01T05:42:21;6.18;;;5.13;;
18340;SDS011;9296;48.084;16.352;2022-08-01T05:44:48;5.50;;;4.97;;
18340;SDS011;9296;48.084;16.352;2022-08-01T05:47:15;5.57;;;4.60;;
18340;SDS011;9296;48.084;16.352;2022-08-01T05:49:44;5.15;;;4.70;;
18340;SDS011;9296;48.084;16.352;2022-08-01T05:52:12;5.70;;;4.47;;
18340;SDS011;9296;48.084;16.352;2022-08-01T05:54:39;6.15;;;4.40;;
18340;SDS011;9296;48.084;16.352;2022-08-01T05:57:06;5.00;;;4.40;;
18340;SDS011;9296;48.084;16.352;2022-08-01T05:59:34;5.15;;;4.20;;
18340;SDS011;9296;48.084;16.352;2022-08-01T06:02:01;4.68;;;4.20;;
18340;SDS011;9296;48.084;16.352;2022-08-01T06:04:29;5.18;;;3.83;;
18340;SDS011;9296;48.084;16.352;2022-08-01T06:06:57;4.50;;;4.10;;
18340;SDS011;9296;48.084;16.352;2022-08-01T06:09:25;4.28;;;3.88;;
18340;SDS011;9296;48.084;16.352;2022-08-01T06:11:52;4.40;;;4.00;;
18340;SDS011;9296;48.084;16.352;2022-08-01T06:14:19;4.38;;;3.90;;
18340;SDS011;9296;48.084;16.352;2022-08-01T06:16:46;4.57;;;4.18;;
18340;SDS011;9296;48.084;16.352;2022-08-01T06:19:13;5.82;;;3.67;;
18340;SDS011;9296;48.084;16.352;2022-08-01T06:24:28;4.80;;;4.10;;
18340;SDS011;9296;48.084;16.352;2022-08-01T06:26:55;4.30;;;3.60;;
18340;SDS011;9296;48.084;16.352;2022-08-01T06:29:22;4.55;;;3.50;;
18340;SDS011;9296;48.084;16.352;2022-08-01T06:31:49;4.45;;;3.80;;
18340;SDS011;9296;48.084;16.352;2022-08-01T06:34:17;3.88;;;3.58;;
18340;SDS011;9296;48.084;16.352;2022-08-01T06:36:44;4.07;;;3.72;;
18340;SDS011;9296;48.084;16.352;2022-08-01T06:39:11;4.05;;;3.65;;
18340;SDS011;9296;48.084;16.352;2022-08-01T06:41:40;5.57;;;3.92;;
18340;SDS011;9296;48.084;16.352;2022-08-01T06:44:07;5.55;;;3.67;;
18340;SDS011;9296;48.084;16.352;2022-08-01T06:46:34;5.03;;;3.70;;
18340;SDS011;9296;48.084;16.352;2022-08-01T06:49:02;4.93;;;3.78;;
18340;SDS011;9296;48.084;16.352;2022-08-01T06:54:33;6.53;;;3.75;;
18340;SDS011;9296;48.084;16.352;2022-08-01T06:57:01;4.75;;;3.67;;
18340;SDS011;9296;48.084;16.352;2022-08-01T06:59:31;6.57;;;3.42;;
18340;SDS011;9296;48.084;16.352;2022-08-01T07:01:58;4.47;;;3.30;;
18340;SDS011;9296;48.084;16.352;2022-08-01T07:04:27;4.60;;;3.50;;
18340;SDS011;9296;48.084;16.352;2022-08-01T07:13:02;6.47;;;3.00;;
18340;SDS011;9296;48.084;16.352;2022-08-01T07:15:30;6.60;;;3.13;;
18340;SDS011;9296;48.084;16.352;2022-08-01T07:17:57;4.72;;;3.30;;
18340;SDS011;9296;48.084;16.352;2022-08-01T07:20:26;3.30;;;3.00;;
18340;SDS011;9296;48.084;16.352;2022-08-01T07:22:53;4.95;;;2.83;;
18340;SDS011;9296;48.084;16.352;2022-08-01T07:25:21;4.18;;;3.00;;
18340;SDS011;9296;48.084;16.352;2022-08-01T07:27:48;5.07;;;3.10;;
18340;SDS011;9296;48.084;16.352;2022-08-01T07:30:17;4.97;;;3.10;;
18340;SDS011;9296;48.084;16.352;2022-08-01T07:32:44;4.40;;;2.92;;
18340;SDS011;9296;48.084;16.352;2022-08-01T07:35:11;5.10;;;2.90;;
18340;SDS011;9296;48.084;16.352;2022-08-01T07:40:48;5.55;;;3.30;;
18340;SDS011;9296;48.084;16.352;2022-08-01T07:43:15;6.20;;;3.38;;
18340;SDS011;9296;48.084;16.352;2022-08-01T07:45:44;8.02;;;3.30;;
18340;SDS011;9296;48.084;16.352;2022-08-01T07:48:11;4.03;;;2.92;;
18340;SDS011;9296;48.084;16.352;2022-08-01T07:50:39;3.85;;;2.78;;
18340;SDS011;9296;48.084;16.352;2022-08-01T07:56:09;5.38;;;3.28;;
18340;SDS011;9296;48.084;16.352;2022-08-01T07:58:37;3.50;;;3.20;;
18340;SDS011;9296;48.084;16.352;2022-08-01T08:01:05;3.53;;;2.90;;
18340;SDS011;9296;48.084;16.352;2022-08-01T08:03:32;4.68;;;3.08;;
18340;SDS011;9296;48.084;16.352;2022-08-01T08:06:00;3.97;;;3.13;;
18340;SDS011;9296;48.084;16.352;2022-08-01T08:11:30;8.95;;;3.17;;
18340;SDS011;9296;48.084;16.352;2022-08-01T08:13:57;4.05;;;3.35;;
18340;SDS011;9296;48.084;16.352;2022-08-01T08:16:26;3.70;;;3.28;;
18340;SDS011;9296;48.084;16.352;2022-08-01T08:18:53;5.68;;;3.05;;
18340;SDS011;9296;48.084;16.352;2022-08-01T08:21:20;4.00;;;3.05;;
18340;SDS011;9296;48.084;16.352;2022-08-01T08:23:48;4.43;;;3.33;;
18340;SDS011;9296;48.084;16.352;2022-08-01T08:26:36;4.65;;;3.10;;
18340;SDS011;9296;48.084;16.352;2022-08-01T08:29:03;3.40;;;2.50;;
18340;SDS011;9296;48.084;16.352;2022-08-01T08:31:32;4.32;;;2.60;;
18340;SDS011;9296;48.084;16.352;2022-08-01T08:34:00;3.17;;;2.30;;
18340;SDS011;9296;48.084;16.352;2022-08-01T08:42:16;2.67;;;2.28;;
18340;SDS011;9296;48.084;16.352;2022-08-01T08:44:45;3.08;;;2.50;;
18340;SDS011;9296;48.084;16.352;2022-08-01T08:47:14;4.85;;;2.70;;
18340;SDS011;9296;48.084;16.352;2022-08-01T08:49:42;2.85;;;2.20;;
18340;SDS011;9296;48.084;16.352;2022-08-01T08:52:09;4.32;;;2.67;;
18340;SDS011;9296;48.084;16.352;2022-08-01T08:54:37;3.28;;;2.40;;
18340;SDS011;9296;48.084;16.352;2022-08-01T08:57:06;3.10;;;2.80;;
18340;SDS011;9296;48.084;16.352;2022-08-01T08:59:35;4.63;;;2.45;;
18340;SDS011;9296;48.084;16.352;2022-08-01T09:02:03;3.33;;;2.80;;
18340;SDS011;9296;48.084;16.352;2022-08-01T09:04:32;3.65;;;2.70;;
18340;SDS011;9296;48.084;16.352;2022-08-01T09:06:59;2.58;;;2.38;;
18340;SDS011;9296;48.084;16.352;2022-08-01T09:09:26;2.63;;;2.40;;
18340;SDS011;9296;48.084;16.352;2022-08-01T09:11:54;2.83;;;2.50;;
18340;SDS011;9296;48.084;16.352;2022-08-01T09:14:21;4.05;;;2.60;;
18340;SDS011;9296;48.084;16.352;2022-08-01T09:16:58;2.60;;;2.40;;
18340;SDS011;9296;48.084;16.352;2022-08-01T09:19:25;3.05;;;2.60;;
18340;SDS011;9296;48.084;16.352;2022-08-01T09:25:23;3.58;;;2.75;;
18340;SDS011;9296;48.084;16.352;2022-08-01T09:28:01;3.13;;;2.47;;
18340;SDS011;9296;48.084;16.352;2022-08-01T09:30:36;2.97;;;2.78;;
18340;SDS011;9296;48.084;16.352;2022-08-01T09:33:03;2.90;;;2.70;;
18340;SDS011;9296;48.084;16.352;2022-08-01T09:35:32;4.15;;;3.05;;
18340;SDS011;9296;48.084;16.352;2022-08-01T09:38:11;3.03;;;2.78;;
18340;SDS011;9296;48.084;16.352;2022-08-01T09:40:48;3.92;;;2.55;;
18340;SDS011;9296;48.084;16.352;2022-08-01T09:43:17;3.17;;;2.80;;
18340;SDS011;9296;48.084;16.352;2022-08-01T09:45:47;5.18;;;2.63;;
18340;SDS011;9296;48.084;16.352;2022-08-01T09:48:14;5.75;;;2.90;;
18340;SDS011;9296;48.084;16.352;2022-08-01T09:50:43;4.05;;;2.72;;
18340;SDS011;9296;48.084;16.352;2022-08-01T09:56:18;4.13;;;2.72;;
18340;SDS011;9296;48.084;16.352;2022-08-01T09:58:53;3.67;;;3.13;;
18340;SDS011;9296;48.084;16.352;2022-08-01T10:01:22;3.13;;;2.80;;
18340;SDS011;9296;48.084;16.352;2022-08-01T10:04:03;2.75;;;2.55;;
18340;SDS011;9296;48.084;16.352;2022-08-01T10:06:31;3.60;;;2.70;;
18340;SDS011;9296;48.084;16.352;2022-08-01T10:12:22;3.03;;;2.80;;
18340;SDS011;9296;48.084;16.352;2022-08-01T10:14:50;5.15;;;3.10;;
18340;SDS011;9296;48.084;16.352;2022-08-01T10:17:20;4.25;;;2.85;;
18340;SDS011;9296;48.084;16.352;2022-08-01T10:19:50;2.75;;;2.55;;
18340;SDS011;9296;48.084;16.352;2022-08-01T10:25:25;3.35;;;3.00;;
18340;SDS011;9296;48.084;16.352;2022-08-01T10:27:56;3.28;;;2.90;;
18340;SDS011;9296;48.084;16.352;2022-08-01T10:30:25;2.75;;;2.55;;
18340;SDS011;9296;48.084;16.352;2022-08-01T10:32:53;5.20;;;3.00;;
18340;SDS011;9296;48.084;16.352;2022-08-01T10:35:22;6.07;;;3.10;;
18340;SDS011;9296;48.084;16.352;2022-08-01T10:37:49;3.40;;;3.10;;
18340;SDS011;9296;48.084;16.352;2022-08-01T10:40:21;3.10;;;2.78;;
18340;SDS011;9296;48.084;16.352;2022-08-01T10:42:48;3.55;;;3.13;;
18340;SDS011;9296;48.084;16.352;2022-08-01T10:45:18;3.95;;;2.83;;
18340;SDS011;9296;48.084;16.352;2022-08-01T10:47:46;2.85;;;2.50;;
18340;SDS011;9296;48.084;16.352;2022-08-01T10:50:27;3.88;;;2.83;;
18340;SDS011;9296;48.084;16.352;2022-08-01T10:53:11;3.78;;;2.45;;
18340;SDS011;9296;48.084;16.352;2022-08-01T10:55:57;4.57;;;2.85;;
18340;SDS011;9296;48.084;16.352;2022-08-01T10:58:26;3.00;;;2.80;;
18340;SDS011;9296;48.084;16.352;2022-08-01T11:01:18;6.25;;;3.00;;
18340;SDS011;9296;48.084;16.352;2022-08-01T11:03:56;6.35;;;3.13;;
18340;SDS011;9296;48.084;16.352;2022-08-01T11:06:25;3.55;;;2.63;;
18340;SDS011;9296;48.084;16.352;2022-08-01T11:12:21;4.45;;;2.75;;
18340;SDS011;9296;48.084;16.352;2022-08-01T11:17:54;4.82;;;2.75;;
18340;SDS011;9296;48.084;16.352;2022-08-01T11:20:22;4.28;;;2.80;;
18340;SDS011;9296;48.084;16.352;2022-08-01T11:26:08;3.92;;;2.78;;
18340;SDS011;9296;48.084;16.352;2022-08-01T11:28:39;3.80;;;2.88;;
18340;SDS011;9296;48.084;16.352;2022-08-01T11:33:55;4.50;;;2.90;;
18340;SDS011;9296;48.084;16.352;2022-08-01T11:36:22;3.05;;;2.55;;
18340;SDS011;9296;48.084;16.352;2022-08-01T11:42:18;3.35;;;2.60;;
18340;SDS011;9296;48.084;16.352;2022-08-01T11:44:49;3.80;;;2.90;;
18340;SDS011;9296;48.084;16.352;2022-08-01T11:47:17;2.70;;;2.50;;
18340;SDS011;9296;48.084;16.352;2022-08-01T11:49:47;2.90;;;2.38;;
18340;SDS011;9296;48.084;16.352;2022-08-01T11:52:24;2.97;;;2.40;;
18340;SDS011;9296;48.084;16.352;2022-08-01T11:54:53;2.63;;;2.43;;
18340;SDS011;9296;48.084;16.352;2022-08-01T11:57:21;3.70;;;2.70;;
18340;SDS011;9296;48.084;16.352;2022-08-01T11:59:50;3.85;;;2.65;;
18340;SDS011;9296;48.084;16.352;2022-08-01T12:02:20;4.03;;;2.63;;
18340;SDS011;9296;48.084;16.352;2022-08-01T12:04:54;4.90;;;2.50;;
18340;SDS011;9296;48.084;16.352;2022-08-01T12:07:36;3.42;;;2.30;;
18340;SDS011;9296;48.084;16.352;2022-08-01T12:10:07;3.72;;;2.92;;
18340;SDS011;9296;48.084;16.352;2022-08-01T12:12:35;3.50;;;3.03;;
18340;SDS011;9296;48.084;16.352;2022-08-01T12:15:04;3.10;;;2.80;;
18340;SDS011;9296;48.084;16.352;2022-08-01T12:17:34;6.35;;;2.90;;
18340;SDS011;9296;48.084;16.352;2022-08-01T12:20:04;3.30;;;2.85;;
18340;SDS011;9296;48.084;16.352;2022-08-01T12:22:47;5.28;;;2.88;;
18340;SDS011;9296;48.084;16.352;2022-08-01T12:25:15;5.88;;;2.90;;
18340;SDS011;9296;48.084;16.352;2022-08-01T12:27:44;3.30;;;3.00;;
18340;SDS011;9296;48.084;16.352;2022-08-01T12:30:13;3.42;;;2.80;;
18340;SDS011;9296;48.084;16.352;2022-08-01T12:32:41;2.85;;;2.60;;
18340;SDS011;9296;48.084;16.352;2022-08-01T12:35:11;3.25;;;2.80;;
18340;SDS011;9296;48.084;16.352;2022-08-01T12:40:35;2.40;;;1.70;;
18340;SDS011;9296;48.084;16.352;2022-08-01T12:43:03;1.60;;;1.48;;
18340;SDS011;9296;48.084;16.352;2022-08-01T12:45:32;2.97;;;1.40;;
18340;SDS011;9296;48.084;16.352;2022-08-01T12:48:00;1.60;;;1.50;;
18340;SDS011;9296;48.084;16.352;2022-08-01T12:50:29;2.25;;;1.30;;
18340;SDS011;9296;48.084;16.352;2022-08-01T12:59:18;3.22;;;1.80;;
18340;SDS011;9296;48.084;16.352;2022-08-01T13:01:46;2.38;;;2.17;;
18340;SDS011;9296;48.084;16.352;2022-08-01T13:04:13;5.70;;;2.08;;
18340;SDS011;9296;48.084;16.352;2022-08-01T13:06:42;2.97;;;2.17;;
18340;SDS011;9296;48.084;16.352;2022-08-01T13:09:09;2.85;;;2.40;;
18340;SDS011;9296;48.084;16.352;2022-08-01T13:11:38;6.05;;;2.47;;
18340;SDS011;9296;48.084;16.352;2022-08-01T13:14:06;6.65;;;2.72;;
18340;SDS011;9296;48.084;16.352;2022-08-01T13:16:34;3.30;;;2.42;;
18340;SDS011;9296;48.084;16.352;2022-08-01T13:19:11;3.15;;;2.65;;
18340;SDS011;9296;48.084;16.352;2022-08-01T13:21:39;3.38;;;2.80;;
18340;SDS011;9296;48.084;16.352;2022-08-01T13:24:08;2.70;;;2.50;;
18340;SDS011;9296;48.084;16.352;2022-08-01T13:26:39;3.80;;;2.70;;
18340;SDS011;9296;48.084;16.352;2022-08-01T13:29:07;7.43;;;3.63;;
18340;SDS011;9296;48.084;16.352;2022-08-01T13:31:35;2.90;;;2.60;;
18340;SDS011;9296;48.084;16.352;2022-08-01T13:34:02;2.35;;;2.10;;
18340;SDS011;9296;48.084;16.352;2022-08-01T13:36:30;3.30;;;2.45;;
18340;SDS011;9296;48.084;16.352;2022-08-01T13:42:02;2.60;;;2.40;;
18340;SDS011;9296;48.084;16.352;2022-08-01T13:44:29;2.50;;;2.30;;
18340;SDS011;9296;48.084;16.352;2022-08-01T13:46:56;3.60;;;3.30;;
18340;SDS011;9296;48.084;16.352;2022-08-01T13:49:24;2.97;;;2.50;;
18340;SDS011;9296;48.084;16.352;2022-08-01T13:51:51;2.20;;;1.90;;
18340;SDS011;9296;48.084;16.352;2022-08-01T13:54:18;2.53;;;1.98;;
18340;SDS011;9296;48.084;16.352;2022-08-01T13:56:45;2.45;;;2.10;;
